Time;durP1;ratioP1;P1;durP2;ratioP2;P2;SDS_P1;SDS_P2;PMS_P1;PMS_P2;Temp;Humidity;BMP_temperature;BMP_pressure;BME280_temperature;BME280_humidity;BME280_pressure;Samples;Min_cycle;Max_cycle;Signal;HPM_P1;HPM_P2
2023/04/18 00:02:16;;;;;;;6.60;4.45;;;;;;;;;;8298552;28;20497;-60
2023/04/18 00:06:16;;;;;;;6.32;4.78;;;;;;;;;;8293167;28;20026;-59
2023/04/18 00:10:16;;;;;;;6.95;4.63;;;;;;;;;;8295969;28;20021;-59
2023/04/18 00:14:17;;;;;;;8.50;4.60;;;;;;;;;;8292479;28;20033;-59
2023/04/18 00:18:17;;;;;;;7.32;4.40;;;;;;;;;;8292738;28;20045;-59
2023/04/18 00:22:21;;;;;;;8.40;4.45;;;;;;;;;;8292608;28;20045;-59
2023/04/18 00:26:21;;;;;;;5.97;4.72;;;;;;;;;;8295765;28;20025;-60
2023/04/18 00:30:21;;;;;;;6.47;4.43;;;;;;;;;;8292783;28;21231;-60
2023/04/18 00:34:22;;;;;;;8.27;4.93;;;;;;;;;;8292059;28;20272;-59
2023/04/18 00:38:22;;;;;;;8.80;4.93;;;;;;;;;;8292775;28;20022;-58
2023/04/18 00:42:24;;;;;;;6.43;4.55;;;;;;;;;;8291762;28;20048;-60
2023/04/18 00:46:24;;;;;;;7.28;4.82;;;;;;;;;;8291091;28;20160;-59
2023/04/18 00:50:25;;;;;;;17.73;5.18;;;;;;;;;;8293713;28;20029;-58
2023/04/18 00:54:26;;;;;;;7.30;4.90;;;;;;;;;;8290802;28;20038;-59
2023/04/18 00:58:26;;;;;;;8.07;4.90;;;;;;;;;;8291653;28;20467;-59
2023/04/18 01:02:29;;;;;;;8.65;5.00;;;;;;;;;;8291308;28;20037;-59
2023/04/18 01:06:29;;;;;;;8.52;5.07;;;;;;;;;;8290852;28;20112;-59
2023/04/18 01:10:30;;;;;;;8.13;5.07;;;;;;;;;;8293351;28;23352;-59
2023/04/18 01:14:30;;;;;;;7.13;4.88;;;;;;;;;;8292020;28;20029;-60
2023/04/18 01:18:30;;;;;;;7.28;4.68;;;;;;;;;;8291725;28;20037;-59
2023/04/18 01:22:31;;;;;;;8.57;4.68;;;;;;;;;;8293834;28;20092;-58
2023/04/18 01:26:31;;;;;;;8.52;4.90;;;;;;;;;;8292661;28;20037;-59
2023/04/18 01:30:32;;;;;;;11.40;4.88;;;;;;;;;;8297253;28;20061;-59
2023/04/18 01:34:32;;;;;;;8.25;4.80;;;;;;;;;;8297255;28;20772;-59
2023/04/18 01:38:32;;;;;;;11.43;4.80;;;;;;;;;;8299386;28;20037;-59
2023/04/18 01:42:33;;;;;;;10.47;5.10;;;;;;;;;;8297452;28;20283;-58
2023/04/18 01:46:33;;;;;;;6.93;4.80;;;;;;;;;;8301485;28;20303;-58
2023/04/18 01:50:33;;;;;;;8.57;4.90;;;;;;;;;;8300603;28;20267;-58
2023/04/18 01:54:33;;;;;;;5.88;4.78;;;;;;;;;;8299183;28;20040;-58
2023/04/18 01:58:34;;;;;;;9.07;5.57;;;;;;;;;;8296134;28;20425;-58
2023/04/18 02:02:34;;;;;;;8.93;5.15;;;;;;;;;;8297236;28;20048;-58
2023/04/18 02:06:34;;;;;;;8.50;4.90;;;;;;;;;;8298845;28;20053;-58
2023/04/18 02:10:34;;;;;;;7.00;4.88;;;;;;;;;;8300111;28;20283;-58
2023/04/18 02:14:34;;;;;;;8.07;4.75;;;;;;;;;;8297038;28;20033;-59
2023/04/18 02:18:35;;;;;;;7.00;5.10;;;;;;;;;;8298918;28;20679;-58
2023/04/18 02:22:37;;;;;;;5.55;4.68;;;;;;;;;;8298205;28;20115;-58
2023/04/18 02:26:37;;;;;;;7.88;4.90;;;;;;;;;;8298550;28;20030;-59
2023/04/18 02:30:37;;;;;;;7.75;5.45;;;;;;;;;;8297616;28;20516;-58
2023/04/18 02:34:38;;;;;;;9.02;4.90;;;;;;;;;;8299249;28;20552;-59
2023/04/18 02:38:38;;;;;;;7.57;4.35;;;;;;;;;;8298252;28;20984;-58
2023/04/18 02:42:38;;;;;;;6.53;4.65;;;;;;;;;;8300261;28;20343;-58
2023/04/18 02:46:38;;;;;;;9.68;5.15;;;;;;;;;;8297537;28;20033;-58
2023/04/18 02:50:39;;;;;;;6.57;4.77;;;;;;;;;;8295925;28;20013;-58
2023/04/18 02:54:39;;;;;;;8.43;5.45;;;;;;;;;;8295216;28;20268;-58
2023/04/18 02:58:39;;;;;;;9.38;5.63;;;;;;;;;;8298402;28;20026;-58
2023/04/18 03:02:39;;;;;;;11.25;5.57;;;;;;;;;;8296468;28;20745;-58
2023/04/18 03:06:40;;;;;;;9.20;5.45;;;;;;;;;;8293622;28;20120;-58
2023/04/18 03:10:41;;;;;;;9.93;5.57;;;;;;;;;;8296971;28;20860;-58
2023/04/18 03:14:43;;;;;;;7.30;5.28;;;;;;;;;;8298097;28;20028;-58
2023/04/18 03:18:43;;;;;;;11.65;6.82;;;;;;;;;;8292529;28;20052;-58
2023/04/18 03:22:43;;;;;;;9.32;5.80;;;;;;;;;;8297344;28;20725;-58
2023/04/18 03:26:44;;;;;;;10.07;6.50;;;;;;;;;;8294879;28;20022;-58
2023/04/18 03:30:45;;;;;;;9.30;5.90;;;;;;;;;;8294107;28;20030;-58
2023/04/18 03:34:45;;;;;;;10.00;6.10;;;;;;;;;;8296477;28;20025;-58
2023/04/18 03:38:45;;;;;;;8.90;6.07;;;;;;;;;;8296042;28;20402;-58
2023/04/18 03:42:45;;;;;;;11.05;6.15;;;;;;;;;;8295601;28;20030;-58
2023/04/18 03:46:45;;;;;;;8.45;6.25;;;;;;;;;;8295286;28;20117;-58
2023/04/18 03:50:45;;;;;;;8.27;6.03;;;;;;;;;;8295457;28;20018;-58
2023/04/18 03:54:46;;;;;;;10.10;6.30;;;;;;;;;;8295146;28;20031;-58
2023/04/18 03:58:46;;;;;;;7.97;6.03;;;;;;;;;;8294275;28;20853;-58
2023/04/18 04:02:46;;;;;;;9.05;6.13;;;;;;;;;;8295263;28;20038;-58
2023/04/18 04:06:46;;;;;;;11.38;6.22;;;;;;;;;;8295780;28;20100;-58
2023/04/18 04:10:46;;;;;;;10.10;7.43;;;;;;;;;;8296382;28;20036;-59
2023/04/18 04:14:46;;;;;;;10.75;6.93;;;;;;;;;;8295005;28;20026;-59
2023/04/18 04:18:47;;;;;;;13.70;7.57;;;;;;;;;;8292076;28;20061;-58
2023/04/18 04:22:47;;;;;;;12.55;7.75;;;;;;;;;;8296906;28;20354;-58
2023/04/18 04:26:49;;;;;;;10.85;7.50;;;;;;;;;;8293474;28;20032;-59
2023/04/18 04:30:49;;;;;;;10.82;8.02;;;;;;;;;;8289599;28;20045;-58
2023/04/18 04:34:49;;;;;;;10.27;7.70;;;;;;;;;;8296512;28;20018;-59
2023/04/18 04:38:51;;;;;;;11.00;8.68;;;;;;;;;;8292056;28;20066;-59
2023/04/18 04:42:52;;;;;;;12.38;8.07;;;;;;;;;;8295088;28;20033;-58
2023/04/18 04:46:53;;;;;;;12.13;7.88;;;;;;;;;;8292642;28;20026;-58
2023/04/18 04:50:54;;;;;;;11.73;8.02;;;;;;;;;;8289653;28;20018;-58
2023/04/18 04:54:54;;;;;;;11.95;7.70;;;;;;;;;;8291010;28;20614;-59
2023/04/18 04:58:55;;;;;;;10.13;7.93;;;;;;;;;;8295582;28;20429;-57
2023/04/18 05:02:58;;;;;;;12.27;8.00;;;;;;;;;;8292146;28;20038;-58
2023/04/18 05:06:58;;;;;;;12.85;8.88;;;;;;;;;;8295360;28;20408;-58
2023/04/18 05:11:00;;;;;;;15.40;8.63;;;;;;;;;;8298787;28;20025;-58
2023/04/18 05:15:00;;;;;;;12.48;9.00;;;;;;;;;;8298117;28;20185;-58
2023/04/18 05:19:00;;;;;;;11.40;8.90;;;;;;;;;;8295632;28;20038;-58
2023/04/18 05:23:00;;;;;;;13.63;8.90;;;;;;;;;;8301236;28;20037;-58
2023/04/18 05:27:01;;;;;;;14.88;9.30;;;;;;;;;;8300586;28;20030;-61
2023/04/18 05:31:01;;;;;;;12.98;9.55;;;;;;;;;;8296123;28;20133;-59
2023/04/18 05:35:01;;;;;;;13.77;9.15;;;;;;;;;;8298779;28;20786;-59
2023/04/18 05:39:01;;;;;;;14.15;9.32;;;;;;;;;;8298286;28;20782;-59
2023/04/18 05:43:01;;;;;;;15.85;10.52;;;;;;;;;;8301033;28;20591;-59
2023/04/18 05:47:04;;;;;;;15.45;11.25;;;;;;;;;;8300651;28;20029;-59
2023/04/18 05:51:04;;;;;;;15.13;11.07;;;;;;;;;;8298967;28;20472;-59
2023/04/18 05:55:05;;;;;;;14.43;10.60;;;;;;;;;;8302098;28;20057;-59
2023/04/18 05:59:05;;;;;;;14.13;10.55;;;;;;;;;;8297243;28;20040;-59
2023/04/18 06:03:05;;;;;;;18.63;11.03;;;;;;;;;;8299555;28;20659;-59
2023/04/18 06:07:06;;;;;;;13.30;9.82;;;;;;;;;;8298402;28;20273;-59
2023/04/18 06:11:07;;;;;;;15.90;10.57;;;;;;;;;;8297294;28;20021;-59
2023/04/18 06:15:08;;;;;;;16.30;10.73;;;;;;;;;;8286497;28;20021;-60
2023/04/18 06:19:08;;;;;;;16.17;11.27;;;;;;;;;;8290146;28;20034;-59
2023/04/18 06:23:08;;;;;;;17.15;10.93;;;;;;;;;;8289823;28;20033;-60
2023/04/18 06:27:09;;;;;;;16.60;10.80;;;;;;;;;;8292573;28;20166;-59
2023/04/18 06:31:09;;;;;;;14.02;10.98;;;;;;;;;;8290089;28;20037;-59
2023/04/18 06:35:09;;;;;;;15.38;11.13;;;;;;;;;;8292422;28;20087;-59
2023/04/18 06:39:09;;;;;;;14.00;10.75;;;;;;;;;;8290064;28;20029;-59
2023/04/18 06:43:10;;;;;;;13.77;10.55;;;;;;;;;;8289055;28;20033;-60
2023/04/18 06:47:10;;;;;;;14.40;10.70;;;;;;;;;;8288799;28;20473;-59
2023/04/18 06:51:11;;;;;;;14.80;10.80;;;;;;;;;;8291865;28;20022;-60
2023/04/18 06:55:12;;;;;;;13.35;10.40;;;;;;;;;;8290091;28;20825;-60
2023/04/18 06:59:12;;;;;;;14.35;10.07;;;;;;;;;;8291879;28;20127;-60
2023/04/18 07:03:12;;;;;;;14.55;10.63;;;;;;;;;;8288733;28;20053;-60
2023/04/18 07:07:13;;;;;;;14.43;10.00;;;;;;;;;;8288432;28;20164;-60
2023/04/18 07:11:14;;;;;;;13.57;10.23;;;;;;;;;;8290429;28;20028;-59
2023/04/18 07:15:14;;;;;;;18.45;10.10;;;;;;;;;;8290883;28;20029;-60
2023/04/18 07:19:14;;;;;;;15.35;10.27;;;;;;;;;;8288419;28;20390;-60
2023/04/18 07:23:15;;;;;;;12.83;9.37;;;;;;;;;;8289041;28;20418;-60
2023/04/18 07:27:15;;;;;;;18.20;10.10;;;;;;;;;;8287910;28;20277;-60
2023/04/18 07:31:15;;;;;;;15.73;10.05;;;;;;;;;;8291295;28;20052;-60
2023/04/18 07:35:15;;;;;;;15.48;10.00;;;;;;;;;;8289873;28;20032;-60
2023/04/18 07:39:15;;;;;;;13.63;9.75;;;;;;;;;;8288677;28;20025;-60
2023/04/18 07:43:16;;;;;;;14.35;9.80;;;;;;;;;;8290134;28;20022;-60
2023/04/18 07:47:16;;;;;;;11.57;9.10;;;;;;;;;;8287957;28;20686;-60
2023/04/18 07:51:16;;;;;;;15.50;10.27;;;;;;;;;;8287114;28;20025;-60
2023/04/18 07:55:17;;;;;;;11.80;8.65;;;;;;;;;;8291778;28;20215;-60
2023/04/18 07:59:17;;;;;;;14.25;9.55;;;;;;;;;;8288689;28;20440;-60
2023/04/18 08:03:17;;;;;;;12.88;9.77;;;;;;;;;;8289573;28;20486;-59
2023/04/18 08:07:17;;;;;;;12.85;9.52;;;;;;;;;;8290067;28;20043;-60
2023/04/18 08:11:17;;;;;;;14.10;9.57;;;;;;;;;;8286645;28;20183;-59
2023/04/18 08:15:18;;;;;;;16.25;9.48;;;;;;;;;;8287836;28;20477;-60
2023/04/18 08:19:18;;;;;;;12.20;9.20;;;;;;;;;;8286705;28;20028;-60
2023/04/18 08:23:18;;;;;;;13.23;9.82;;;;;;;;;;8286465;28;20284;-58
2023/04/18 08:27:18;;;;;;;13.10;9.60;;;;;;;;;;8288419;28;20684;-58
2023/04/18 08:31:19;;;;;;;12.85;9.32;;;;;;;;;;8286540;28;20032;-58
2023/04/18 08:35:19;;;;;;;11.23;9.18;;;;;;;;;;8286264;28;20029;-58
2023/04/18 08:39:19;;;;;;;15.57;10.10;;;;;;;;;;8288351;28;20032;-60
2023/04/18 08:43:19;;;;;;;12.23;9.90;;;;;;;;;;8287819;28;20467;-58
2023/04/18 08:47:20;;;;;;;11.70;9.23;;;;;;;;;;8290770;28;20427;-58
2023/04/18 08:51:20;;;;;;;12.20;10.07;;;;;;;;;;8286474;28;20536;-59
2023/04/18 08:55:24;;;;;;;11.68;9.07;;;;;;;;;;8286512;28;20154;-58
2023/04/18 08:59:24;;;;;;;13.65;10.20;;;;;;;;;;8290866;28;20025;-58
2023/04/18 09:03:40;;;;;;;11.30;8.90;;;;;;;;;;8285383;28;20526;-59
2023/04/18 09:07:41;;;;;;;12.25;9.27;;;;;;;;;;8288163;28;20107;-59
2023/04/18 09:11:41;;;;;;;12.40;10.15;;;;;;;;;;8289998;28;20021;-59
2023/04/18 09:15:52;;;;;;;12.30;9.50;;;;;;;;;;8288800;28;20608;-59
2023/04/18 09:19:53;;;;;;;13.02;9.27;;;;;;;;;;8286064;28;20024;-59
2023/04/18 09:24:06;;;;;;;12.73;9.50;;;;;;;;;;8286927;28;20494;-59
2023/04/18 09:28:22;;;;;;;12.95;9.73;;;;;;;;;;8287170;28;20025;-59
2023/04/18 09:32:23;;;;;;;13.85;9.75;;;;;;;;;;8288875;28;20077;-58
2023/04/18 09:36:30;;;;;;;12.02;9.50;;;;;;;;;;8287038;28;20021;-59
2023/04/18 09:40:31;;;;;;;11.10;9.15;;;;;;;;;;8286272;28;21487;-59
2023/04/18 09:44:31;;;;;;;13.60;9.32;;;;;;;;;;8289111;28;20092;-59
2023/04/18 09:48:31;;;;;;;12.52;8.73;;;;;;;;;;8285621;28;20036;-59
2023/04/18 09:52:41;;;;;;;15.07;9.35;;;;;;;;;;8292065;28;20532;-59
2023/04/18 09:56:45;;;;;;;12.23;9.85;;;;;;;;;;8293886;28;20026;-59
2023/04/18 10:00:46;;;;;;;13.63;9.45;;;;;;;;;;8288779;28;20125;-60
2023/04/18 10:04:48;;;;;;;13.23;10.02;;;;;;;;;;8292361;28;20065;-60
2023/04/18 10:08:49;;;;;;;14.77;9.73;;;;;;;;;;8286428;28;20289;-59
2023/04/18 10:12:52;;;;;;;10.95;9.15;;;;;;;;;;8288494;28;20036;-60
2023/04/18 10:16:53;;;;;;;13.55;9.85;;;;;;;;;;8292006;28;20094;-60
2023/04/18 10:20:59;;;;;;;11.48;9.25;;;;;;;;;;8288658;28;20091;-60
2023/04/18 10:24:59;;;;;;;12.13;8.95;;;;;;;;;;8295476;28;20272;-59
2023/04/18 10:29:00;;;;;;;12.37;8.83;;;;;;;;;;8292858;28;20191;-59
2023/04/18 10:33:18;;;;;;;10.73;9.05;;;;;;;;;;8290871;28;20277;-60
2023/04/18 10:37:18;;;;;;;11.55;8.90;;;;;;;;;;8289227;28;20021;-59
2023/04/18 10:41:18;;;;;;;11.93;8.40;;;;;;;;;;8291472;28;20470;-59
2023/04/18 10:45:22;;;;;;;11.25;8.43;;;;;;;;;;8290820;28;20434;-60
2023/04/18 10:49:27;;;;;;;15.82;10.35;;;;;;;;;;8294860;28;20501;-59
2023/04/18 10:53:27;;;;;;;12.18;8.95;;;;;;;;;;8290955;28;20298;-59
2023/04/18 10:57:37;;;;;;;13.93;9.60;;;;;;;;;;8286454;28;20391;-59
2023/04/18 11:01:40;;;;;;;11.20;8.63;;;;;;;;;;8288105;28;20538;-59
2023/04/18 11:05:41;;;;;;;12.93;8.60;;;;;;;;;;8287836;28;20025;-59
2023/04/18 11:09:49;;;;;;;11.32;8.85;;;;;;;;;;8294921;28;20036;-60
2023/04/18 11:13:56;;;;;;;12.20;8.95;;;;;;;;;;8298081;28;20595;-60
2023/04/18 11:17:59;;;;;;;11.43;9.25;;;;;;;;;;8290327;28;20481;-59
2023/04/18 11:22:01;;;;;;;12.35;9.02;;;;;;;;;;8292261;28;20107;-59
2023/04/18 11:26:02;;;;;;;11.30;8.65;;;;;;;;;;8292372;28;20024;-59
2023/04/18 11:30:02;;;;;;;9.90;8.60;;;;;;;;;;8287399;28;20133;-59
2023/04/18 11:34:02;;;;;;;11.60;8.87;;;;;;;;;;8288710;28;20209;-60
2023/04/18 11:38:02;;;;;;;10.10;8.15;;;;;;;;;;8285329;28;20292;-60
2023/04/18 11:42:02;;;;;;;9.52;8.10;;;;;;;;;;8287659;28;20034;-60
2023/04/18 11:46:03;;;;;;;9.47;8.17;;;;;;;;;;8291294;28;20406;-60
2023/04/18 11:50:04;;;;;;;9.75;8.07;;;;;;;;;;8288586;28;20280;-59
2023/04/18 11:54:04;;;;;;;10.13;8.32;;;;;;;;;;8288652;28;20513;-60
2023/04/18 11:58:05;;;;;;;8.65;7.60;;;;;;;;;;8286885;28;20459;-60
2023/04/18 12:02:06;;;;;;;9.52;7.88;;;;;;;;;;8288047;28;20029;-60
2023/04/18 12:06:06;;;;;;;8.93;7.05;;;;;;;;;;8287627;28;20061;-60
2023/04/18 12:10:22;;;;;;;7.70;6.90;;;;;;;;;;8285946;28;20017;-60
2023/04/18 12:14:22;;;;;;;7.80;7.00;;;;;;;;;;8286437;28;20030;-60
2023/04/18 12:18:23;;;;;;;7.00;6.22;;;;;;;;;;8288520;28;20048;-60
2023/04/18 12:22:36;;;;;;;8.32;6.90;;;;;;;;;;8285630;28;20035;-60
2023/04/18 12:26:43;;;;;;;7.30;6.60;;;;;;;;;;8287839;28;20032;-60
2023/04/18 12:30:44;;;;;;;7.90;6.70;;;;;;;;;;8291227;28;20086;-61
2023/04/18 12:34:44;;;;;;;8.13;6.30;;;;;;;;;;8291468;28;20121;-60
2023/04/18 12:38:45;;;;;;;6.75;6.07;;;;;;;;;;8289588;28;20115;-60
2023/04/18 12:42:45;;;;;;;9.40;7.05;;;;;;;;;;8283335;28;20032;-60
2023/04/18 12:46:46;;;;;;;7.70;6.90;;;;;;;;;;8288684;28;20029;-60
2023/04/18 12:50:46;;;;;;;7.65;6.82;;;;;;;;;;8281707;28;20447;-60
2023/04/18 12:54:46;;;;;;;8.18;6.72;;;;;;;;;;8291449;28;20029;-60
2023/04/18 12:58:46;;;;;;;6.80;6.10;;;;;;;;;;8293169;28;20041;-60
2023/04/18 13:02:46;;;;;;;6.63;5.95;;;;;;;;;;8291984;28;20195;-60
2023/04/18 13:06:47;;;;;;;6.65;5.95;;;;;;;;;;8285023;28;20092;-60
2023/04/18 13:10:47;;;;;;;7.50;6.80;;;;;;;;;;8284311;28;20048;-60
2023/04/18 13:14:47;;;;;;;8.55;7.05;;;;;;;;;;8281492;28;20504;-60
2023/04/18 13:18:47;;;;;;;6.88;6.18;;;;;;;;;;8285521;28;20295;-60
2023/04/18 13:22:48;;;;;;;6.25;5.00;;;;;;;;;;8285000;28;20467;-60
2023/04/18 13:26:48;;;;;;;5.97;5.00;;;;;;;;;;8288506;28;20076;-60
2023/04/18 13:30:48;;;;;;;5.47;4.55;;;;;;;;;;8290405;28;20089;-60
2023/04/18 13:34:48;;;;;;;5.68;4.53;;;;;;;;;;8292640;28;20112;-60
2023/04/18 13:38:50;;;;;;;5.05;4.47;;;;;;;;;;8292582;28;20036;-61
2023/04/18 13:42:50;;;;;;;4.75;4.25;;;;;;;;;;8295438;28;20032;-61
2023/04/18 13:46:51;;;;;;;5.18;4.53;;;;;;;;;;8293346;28;20038;-60
2023/04/18 13:50:52;;;;;;;5.28;3.90;;;;;;;;;;8295475;28;20029;-60
2023/04/18 13:54:52;;;;;;;4.70;4.20;;;;;;;;;;8295707;28;20037;-60
2023/04/18 13:58:53;;;;;;;4.68;3.67;;;;;;;;;;8294409;28;20036;-60
2023/04/18 14:02:54;;;;;;;4.22;3.83;;;;;;;;;;8292700;28;20045;-60
2023/04/18 14:06:54;;;;;;;5.95;3.55;;;;;;;;;;8293071;28;20026;-60
2023/04/18 14:10:54;;;;;;;3.53;3.23;;;;;;;;;;8291088;28;20025;-60
2023/04/18 14:14:54;;;;;;;4.45;3.20;;;;;;;;;;8293271;28;20025;-60
2023/04/18 14:18:55;;;;;;;4.60;3.20;;;;;;;;;;8291751;28;20237;-60
2023/04/18 14:22:55;;;;;;;5.55;3.35;;;;;;;;;;8290432;28;20305;-60
2023/04/18 14:26:55;;;;;;;3.88;3.47;;;;;;;;;;8290600;28;20465;-60
2023/04/18 14:30:56;;;;;;;3.40;3.20;;;;;;;;;;8290365;28;20048;-60
2023/04/18 14:34:57;;;;;;;3.72;3.42;;;;;;;;;;8291255;28;20017;-60
2023/04/18 14:38:58;;;;;;;4.07;3.67;;;;;;;;;;8291223;28;20490;-60
2023/04/18 14:42:58;;;;;;;3.97;3.67;;;;;;;;;;8285506;28;20036;-60
2023/04/18 14:46:58;;;;;;;5.68;3.38;;;;;;;;;;8289436;28;20048;-60
2023/04/18 14:50:59;;;;;;;3.80;3.50;;;;;;;;;;8286182;28;20124;-60
2023/04/18 14:54:59;;;;;;;4.75;3.75;;;;;;;;;;8275563;28;20152;-61
2023/04/18 14:58:59;;;;;;;3.88;3.47;;;;;;;;;;8287970;28;20021;-60
2023/04/18 15:03:00;;;;;;;4.60;3.55;;;;;;;;;;8284018;28;20596;-61
2023/04/18 15:07:00;;;;;;;4.10;3.70;;;;;;;;;;8286573;28;20492;-60
2023/04/18 15:11:04;;;;;;;6.20;3.80;;;;;;;;;;8293138;28;20021;-61
2023/04/18 15:15:05;;;;;;;4.50;4.10;;;;;;;;;;8283159;28;20554;-61
2023/04/18 15:19:05;;;;;;;4.20;3.63;;;;;;;;;;8285235;28;20049;-60
2023/04/18 15:23:05;;;;;;;4.03;3.63;;;;;;;;;;8285493;28;20065;-61
2023/04/18 15:27:06;;;;;;;4.68;4.28;;;;;;;;;;8287006;28;20510;-61
2023/04/18 15:31:08;;;;;;;4.35;3.95;;;;;;;;;;8291729;28;20106;-61
2023/04/18 15:35:08;;;;;;;4.88;4.38;;;;;;;;;;8285473;28;20473;-60
2023/04/18 15:39:09;;;;;;;4.75;4.25;;;;;;;;;;8285033;28;20047;-61
2023/04/18 15:43:09;;;;;;;5.15;3.78;;;;;;;;;;8279718;28;20580;-60
2023/04/18 15:47:09;;;;;;;7.93;4.05;;;;;;;;;;8283408;28;20041;-60
2023/04/18 15:51:10;;;;;;;6.03;4.40;;;;;;;;;;8279860;28;20512;-60
2023/04/18 15:55:11;;;;;;;4.70;4.20;;;;;;;;;;8288410;28;20036;-60
2023/04/18 15:59:12;;;;;;;5.25;4.18;;;;;;;;;;8283556;28;20312;-60
2023/04/18 16:03:12;;;;;;;4.93;4.03;;;;;;;;;;8279848;28;20038;-60
2023/04/18 16:07:12;;;;;;;5.05;4.57;;;;;;;;;;8287208;28;20060;-60
2023/04/18 16:11:13;;;;;;;4.70;4.30;;;;;;;;;;8282768;28;20432;-60
2023/04/18 16:15:13;;;;;;;4.95;4.50;;;;;;;;;;8284947;28;20123;-60
2023/04/18 16:19:14;;;;;;;6.63;4.55;;;;;;;;;;8281256;28;20029;-60
2023/04/18 16:23:14;;;;;;;5.10;4.60;;;;;;;;;;8291001;28;20040;-60
2023/04/18 16:27:15;;;;;;;4.60;4.20;;;;;;;;;;8288017;28;20024;-60
2023/04/18 16:31:15;;;;;;;4.78;4.28;;;;;;;;;;8291638;28;20037;-60
2023/04/18 16:35:15;;;;;;;4.87;4.40;;;;;;;;;;8289197;28;20521;-60
2023/04/18 16:39:16;;;;;;;4.78;4.38;;;;;;;;;;8286639;28;20373;-60
2023/04/18 16:43:17;;;;;;;4.85;4.32;;;;;;;;;;8288689;28;20039;-60
2023/04/18 16:47:17;;;;;;;5.45;4.50;;;;;;;;;;8287551;28;20081;-60
2023/04/18 16:51:18;;;;;;;5.18;4.68;;;;;;;;;;8285279;28;20368;-60
2023/04/18 16:55:18;;;;;;;5.93;5.32;;;;;;;;;;8286138;28;20646;-60
2023/04/18 16:59:18;;;;;;;6.35;5.22;;;;;;;;;;8288084;28;20029;-61
2023/04/18 17:03:18;;;;;;;8.50;5.97;;;;;;;;;;8291591;28;20599;-60
2023/04/18 17:07:18;;;;;;;6.65;6.00;;;;;;;;;;8292146;28;20388;-60
2023/04/18 17:11:19;;;;;;;5.90;5.35;;;;;;;;;;8295291;28;20064;-60
2023/04/18 17:15:20;;;;;;;5.88;5.28;;;;;;;;;;8290867;28;20368;-60
2023/04/18 17:19:20;;;;;;;6.63;5.20;;;;;;;;;;8294410;28;20461;-60
2023/04/18 17:23:20;;;;;;;6.28;5.68;;;;;;;;;;8293822;28;20028;-60
2023/04/18 17:27:20;;;;;;;7.50;6.22;;;;;;;;;;8292926;28;20032;-60
2023/04/18 17:31:21;;;;;;;7.85;6.10;;;;;;;;;;8292445;28;20037;-60
2023/04/18 17:35:21;;;;;;;8.93;6.68;;;;;;;;;;8293724;28;20029;-60
2023/04/18 17:39:21;;;;;;;7.57;6.87;;;;;;;;;;8293827;28;20037;-60
2023/04/18 17:43:21;;;;;;;8.38;7.22;;;;;;;;;;8292416;28;20041;-60
2023/04/18 17:47:21;;;;;;;8.52;6.75;;;;;;;;;;8294611;28;20034;-60
2023/04/18 17:51:22;;;;;;;7.00;6.30;;;;;;;;;;8294911;28;20150;-60
2023/04/18 17:55:23;;;;;;;7.78;6.72;;;;;;;;;;8293395;28;20042;-60
2023/04/18 17:59:23;;;;;;;8.32;7.50;;;;;;;;;;8293501;28;20504;-60
2023/04/18 18:03:23;;;;;;;8.02;7.22;;;;;;;;;;8292706;28;20532;-60
2023/04/18 18:07:23;;;;;;;8.45;7.57;;;;;;;;;;8294038;28;20021;-60
2023/04/18 18:11:23;;;;;;;8.30;7.05;;;;;;;;;;8295912;28;20018;-60
2023/04/18 18:15:24;;;;;;;9.38;7.22;;;;;;;;;;8295030;28;20119;-60
2023/04/18 18:19:24;;;;;;;7.77;6.97;;;;;;;;;;8291574;28;20596;-59
2023/04/18 18:23:25;;;;;;;8.18;7.13;;;;;;;;;;8288588;28;20860;-60
2023/04/18 18:27:25;;;;;;;9.75;6.55;;;;;;;;;;8292521;28;20533;-60
2023/04/18 18:31:25;;;;;;;8.23;6.57;;;;;;;;;;8293397;28;20532;-60
2023/04/18 18:35:25;;;;;;;6.75;6.05;;;;;;;;;;8291664;28;20152;-60
2023/04/18 18:39:25;;;;;;;7.80;5.93;;;;;;;;;;8285308;28;20387;-59
2023/04/18 18:43:26;;;;;;;7.07;6.28;;;;;;;;;;8295121;28;20288;-60
2023/04/18 18:47:26;;;;;;;8.10;6.05;;;;;;;;;;8296390;28;20034;-60
2023/04/18 18:51:26;;;;;;;6.22;5.63;;;;;;;;;;8292667;28;20078;-59
2023/04/18 18:55:27;;;;;;;7.07;6.35;;;;;;;;;;8299091;28;20087;-60
2023/04/18 18:59:28;;;;;;;7.78;6.05;;;;;;;;;;8289703;28;20029;-60
2023/04/18 19:03:28;;;;;;;7.13;5.68;;;;;;;;;;8292407;28;20038;-60
2023/04/18 19:07:28;;;;;;;7.38;5.65;;;;;;;;;;8286435;28;20638;-60
2023/04/18 19:11:29;;;;;;;6.28;5.50;;;;;;;;;;8284018;28;20083;-59
2023/04/18 19:15:29;;;;;;;6.68;5.65;;;;;;;;;;8293159;28;20060;-60
2023/04/18 19:19:29;;;;;;;8.77;5.57;;;;;;;;;;8296437;28;20787;-60
2023/04/18 19:23:30;;;;;;;6.72;5.35;;;;;;;;;;8289614;28;21075;-60
2023/04/18 19:27:30;;;;;;;6.57;5.60;;;;;;;;;;8291925;28;20156;-60
2023/04/18 19:31:30;;;;;;;6.22;5.55;;;;;;;;;;8286848;28;21606;-60
2023/04/18 19:35:30;;;;;;;6.50;5.80;;;;;;;;;;8289296;28;21641;-60
2023/04/18 19:39:30;;;;;;;7.75;5.80;;;;;;;;;;8291258;28;20469;-59
2023/04/18 19:43:31;;;;;;;6.78;5.78;;;;;;;;;;8295599;28;20021;-60
2023/04/18 19:47:32;;;;;;;7.53;5.80;;;;;;;;;;8297286;28;20022;-60
2023/04/18 19:51:32;;;;;;;7.35;6.03;;;;;;;;;;8292433;28;20036;-60
2023/04/18 19:55:33;;;;;;;8.15;5.68;;;;;;;;;;8298303;28;20033;-60
2023/04/18 19:59:33;;;;;;;6.68;6.00;;;;;;;;;;8289561;28;20080;-60
2023/04/18 20:03:33;;;;;;;6.40;5.80;;;;;;;;;;8289460;28;20030;-60
2023/04/18 20:07:34;;;;;;;8.07;6.03;;;;;;;;;;8292575;28;20111;-60
2023/04/18 20:11:34;;;;;;;8.13;5.88;;;;;;;;;;8299367;28;20348;-60
2023/04/18 20:15:34;;;;;;;7.20;5.95;;;;;;;;;;8293418;28;20573;-60
2023/04/18 20:19:34;;;;;;;9.07;6.22;;;;;;;;;;8296708;28;20029;-60
2023/04/18 20:23:35;;;;;;;8.60;6.57;;;;;;;;;;8296116;28;20766;-60
2023/04/18 20:27:35;;;;;;;8.50;6.72;;;;;;;;;;8293328;28;20025;-60
2023/04/18 20:31:40;;;;;;;7.43;6.50;;;;;;;;;;8294940;28;20032;-60
2023/04/18 20:35:40;;;;;;;8.82;6.00;;;;;;;;;;8294720;28;20033;-60
2023/04/18 20:39:40;;;;;;;7.40;6.50;;;;;;;;;;8284454;23;20846;-72
2023/04/18 20:43:42;;;;;;;9.35;6.68;;;;;;;;;;8254367;28;20026;-73
2023/04/18 20:47:43;;;;;;;8.18;6.40;;;;;;;;;;8274303;28;20108;-74
2023/04/18 20:51:44;;;;;;;8.95;6.50;;;;;;;;;;8282627;28;20083;-73
2023/04/18 20:55:44;;;;;;;7.67;6.40;;;;;;;;;;8288965;28;20107;-74
2023/04/18 20:59:45;;;;;;;8.15;6.55;;;;;;;;;;8290190;28;20505;-73
2023/04/18 21:03:45;;;;;;;7.28;6.30;;;;;;;;;;8284810;28;20043;-74
2023/04/18 21:07:48;;;;;;;6.85;6.15;;;;;;;;;;8281989;28;20017;-72
2023/04/18 21:11:48;;;;;;;8.38;6.50;;;;;;;;;;8285788;28;20087;-73
2023/04/18 21:15:50;;;;;;;8.52;6.70;;;;;;;;;;8279743;28;20783;-73
2023/04/18 21:19:51;;;;;;;8.18;6.47;;;;;;;;;;8252731;28;20124;-73
2023/04/18 21:23:51;;;;;;;7.07;6.28;;;;;;;;;;8251431;28;20061;-73
2023/04/18 21:27:51;;;;;;;7.82;6.85;;;;;;;;;;8249294;28;20018;-73
2023/04/18 21:31:52;;;;;;;7.57;6.57;;;;;;;;;;8252125;28;20034;-72
2023/04/18 21:35:52;;;;;;;8.27;6.70;;;;;;;;;;8252936;28;20133;-73
2023/04/18 21:39:52;;;;;;;7.22;6.38;;;;;;;;;;8254065;28;20275;-73
2023/04/18 21:43:52;;;;;;;9.07;6.50;;;;;;;;;;8251754;28;21023;-73
2023/04/18 21:47:52;;;;;;;9.63;6.78;;;;;;;;;;8255302;28;20030;-73
2023/04/18 21:51:53;;;;;;;8.43;7.05;;;;;;;;;;8257803;28;20021;-73
2023/04/18 21:55:53;;;;;;;7.95;6.65;;;;;;;;;;8258437;28;20029;-73
2023/04/18 21:59:55;;;;;;;10.15;7.03;;;;;;;;;;8256638;28;20107;-74
2023/04/18 22:03:55;;;;;;;8.60;7.15;;;;;;;;;;8254569;28;20042;-74
2023/04/18 22:07:55;;;;;;;9.60;7.10;;;;;;;;;;8251693;28;20026;-73
2023/04/18 22:11:56;;;;;;;8.50;7.00;;;;;;;;;;8257098;28;20026;-73
2023/04/18 22:15:57;;;;;;;8.48;6.70;;;;;;;;;;8256578;28;20026;-73
2023/04/18 22:19:58;;;;;;;10.23;7.32;;;;;;;;;;8259353;28;20614;-73
2023/04/18 22:23:58;;;;;;;7.90;6.38;;;;;;;;;;8255080;28;20029;-73
2023/04/18 22:27:58;;;;;;;9.45;6.80;;;;;;;;;;8256316;28;20033;-73
2023/04/18 22:31:59;;;;;;;8.30;6.67;;;;;;;;;;8255283;28;20045;-73
2023/04/18 22:35:59;;;;;;;7.70;6.55;;;;;;;;;;8256191;28;20030;-73
2023/04/18 22:40:00;;;;;;;8.33;6.87;;;;;;;;;;8256398;28;20769;-73
2023/04/18 22:44:00;;;;;;;8.35;6.93;;;;;;;;;;8257758;28;20297;-73
2023/04/18 22:48:00;;;;;;;8.23;6.65;;;;;;;;;;8243299;28;20041;-73
2023/04/18 22:52:00;;;;;;;7.97;6.43;;;;;;;;;;8255615;28;20018;-73
2023/04/18 22:56:01;;;;;;;10.02;7.18;;;;;;;;;;8255449;28;20025;-73
2023/04/18 23:00:03;;;;;;;6.93;6.22;;;;;;;;;;8253155;28;20038;-73
2023/04/18 23:04:03;;;;;;;8.38;6.75;;;;;;;;;;8255858;28;20760;-73
2023/04/18 23:08:05;;;;;;;7.70;6.38;;;;;;;;;;8254895;28;20033;-73
2023/04/18 23:12:05;;;;;;;6.88;6.18;;;;;;;;;;8255426;28;20018;-73
2023/04/18 23:16:06;;;;;;;7.72;6.43;;;;;;;;;;8257272;28;20038;-73
2023/04/18 23:20:06;;;;;;;8.30;6.38;;;;;;;;;;8254373;28;20960;-73
2023/04/18 23:24:07;;;;;;;7.97;6.53;;;;;;;;;;8255696;28;20022;-73
2023/04/18 23:28:07;;;;;;;8.60;6.57;;;;;;;;;;8255338;28;20022;-73
2023/04/18 23:32:07;;;;;;;8.82;6.60;;;;;;;;;;8253306;28;20030;-73
2023/04/18 23:36:08;;;;;;;7.47;6.38;;;;;;;;;;8255384;28;20053;-73
2023/04/18 23:40:08;;;;;;;9.43;6.43;;;;;;;;;;8252856;28;20080;-73
2023/04/18 23:44:08;;;;;;;7.68;6.47;;;;;;;;;;8258879;28;20033;-73
2023/04/18 23:48:08;;;;;;;7.18;5.93;;;;;;;;;;8254056;28;20026;-73
2023/04/18 23:52:09;;;;;;;8.82;6.40;;;;;;;;;;8269730;28;20384;-73
2023/04/18 23:56:09;;;;;;;8.38;6.25;;;;;;;;;;8254156;28;20033;-73
